This is the latest recevied weather packets stored in our database for station/object YM2KRB-11. If no packets are shown the sender has not sent any weather packets the latest 10 day(s).
| Time | Temp. | Humidity | Pressure | Rain* | Wind** | Luminosity | Snow |
|---|---|---|---|---|---|---|---|
| 1777614000 | 11.11° C | 62% | 940.5 hPa | - | - | - | - |
| 1777612800 | 10.56° C | 61% | 940.1 hPa | - | - | - | - |
| 1777611599 | 10.56° C | 56% | 940.7 hPa | - | - | - | - |
| 1777610398 | 10.56° C | 55% | 940.5 hPa | - | - | - | - |
| 1777609197 | 10.56° C | 57% | 940.5 hPa | - | - | - | - |
| 1777607997 | 11.11° C | 55% | 940.2 hPa | - | - | - | - |
| 1777606796 | 10.56° C | 57% | 940 hPa | - | - | - | - |
| 1777605595 | 10° C | 57% | 939.8 hPa | - | - | - | - |
| 1777604394 | 10° C | 57% | 939.5 hPa | - | - | - | - |
| 1777603193 | 10° C | 56% | 939.4 hPa | - | - | - | - |
| 1777601992 | 10.56° C | 57% | 939.1 hPa | - | - | - | - |
| 1777583981 | 13.89° C | 40% | 940.1 hPa | - | - | - | - |
| 1777582780 | 13.89° C | 40% | 940.4 hPa | - | - | - | - |
| 1777581579 | 13.33° C | 40% | 940.5 hPa | - | - | - | - |
| 1777580378 | 13.89° C | 39% | 940.4 hPa | - | - | - | - |
| 1777579177 | 13.33° C | 40% | 940.5 hPa | - | - | - | - |
| 1777576776 | 13.89° C | 39% | 940.5 hPa | - | - | - | - |
| 1777571973 | 16.11° C | 33% | 940.6 hPa | - | - | - | - |
| 1777570772 | 16.11° C | 33% | 940.4 hPa | - | - | - | - |
| 1777565969 | 17.78° C | 32% | 939.6 hPa | - | - | - | - |
| 1777564768 | 18.33° C | 31% | 939.5 hPa | - | - | - | - |
| 1777563567 | 19.44° C | 30% | 939.3 hPa | - | - | - | - |
| 1777559965 | 23.89° C | 26% | 939.1 hPa | - | - | - | - |
| 1777558764 | 27.78° C | 23% | 939.2 hPa | - | - | - | - |
| 1777557563 | 27.78° C | 22% | 939.2 hPa | - | - | - | - |
* Rain since midnight (hover to see other rain measurements)
** Current wind speed in m/s (hover to see current wind gust speed)